Time;durP1;ratioP1;P1;durP2;ratioP2;P2;SDS_P1;SDS_P2;PMS_P1;PMS_P2;Temp;Humidity;BMP_temperature;BMP_pressure;BME280_temperature;BME280_humidity;BME280_pressure;Samples;Min_cycle;Max_cycle;Signal;HPM_P1;HPM_P2
2023/08/04 00:00:20;;;;;;;8.30;2.88;;;17.80;94.20;;;;;;5072808;28;20064;-75
2023/08/04 00:02:45;;;;;;;11.60;3.70;;;17.80;94.20;;;;;;5055310;28;20017;-75
2023/08/04 00:05:11;;;;;;;7.53;3.30;;;17.80;94.20;;;;;;5071846;28;20036;-75
2023/08/04 00:07:37;;;;;;;10.18;3.53;;;17.70;94.10;;;;;;5072816;28;20036;-74
2023/08/04 00:10:03;;;;;;;9.60;3.10;;;17.70;94.20;;;;;;5072721;28;20044;-74
2023/08/04 00:12:30;;;;;;;9.60;3.33;;;17.70;94.10;;;;;;5071880;28;20037;-74
2023/08/04 00:14:55;;;;;;;10.60;2.83;;;17.60;94.20;;;;;;5071692;28;20029;-74
2023/08/04 00:17:21;;;;;;;10.80;3.42;;;17.60;94.20;;;;;;5072721;28;20040;-74
2023/08/04 00:19:47;;;;;;;9.50;3.70;;;17.60;94.20;;;;;;5071840;28;20029;-74
2023/08/04 00:22:12;;;;;;;8.93;3.72;;;17.60;94.20;;;;;;5072692;28;20037;-75
2023/08/04 00:24:38;;;;;;;9.88;4.03;;;17.60;94.10;;;;;;5075474;28;20056;-74
2023/08/04 00:27:04;;;;;;;7.72;3.38;;;17.60;94.00;;;;;;5075409;28;20021;-75
2023/08/04 00:29:29;;;;;;;7.50;3.08;;;17.50;94.10;;;;;;5076318;28;20070;-74
2023/08/04 00:31:55;;;;;;;9.20;3.42;;;17.50;94.10;;;;;;5076353;28;20028;-74
2023/08/04 00:34:21;;;;;;;10.25;3.58;;;17.40;94.10;;;;;;5075080;28;20403;-74
2023/08/04 00:36:47;;;;;;;8.98;3.42;;;17.40;94.20;;;;;;5042158;28;20036;-75
2023/08/04 00:39:16;;;;;;;10.35;3.55;;;17.40;94.30;;;;;;5075963;28;20021;-74
2023/08/04 00:41:42;;;;;;;10.65;3.60;;;17.40;94.20;;;;;;5076235;28;20088;-74
2023/08/04 00:44:08;;;;;;;7.40;3.00;;;17.30;94.20;;;;;;5075066;28;20032;-74
2023/08/04 00:46:35;;;;;;;10.30;3.88;;;17.30;94.20;;;;;;5075154;28;20029;-74
2023/08/04 00:49:01;;;;;;;8.52;3.50;;;17.20;94.30;;;;;;5076024;28;20029;-74
2023/08/04 00:51:28;;;;;;;9.25;3.50;;;17.10;94.30;;;;;;5058469;28;20036;-74
2023/08/04 00:53:54;;;;;;;8.27;3.40;;;17.10;94.40;;;;;;5075936;28;20025;-74
2023/08/04 00:56:20;;;;;;;9.88;3.70;;;17.10;94.50;;;;;;5075832;28;20025;-74
2023/08/04 00:58:45;;;;;;;10.20;4.00;;;17.10;94.50;;;;;;5075863;28;20036;-74
2023/08/04 01:01:11;;;;;;;7.22;3.80;;;17.00;94.60;;;;;;5075778;28;20021;-74
2023/08/04 01:03:40;;;;;;;7.15;3.03;;;17.00;94.70;;;;;;5075806;28;20434;-75
2023/08/04 01:06:24;;;;;;;10.20;3.40;;;16.90;94.80;;;;;;5075813;28;20033;-75
2023/08/04 01:09:00;;;;;;;10.10;3.50;;;16.90;94.90;;;;;;5075697;28;20059;-75
2023/08/04 01:11:34;;;;;;;9.02;3.58;;;16.90;95.00;;;;;;5075702;28;20044;-75
2023/08/04 01:14:02;;;;;;;8.52;3.95;;;16.80;95.10;;;;;;5075543;28;20025;-75
2023/08/04 01:16:28;;;;;;;15.77;3.78;;;16.80;95.20;;;;;;5075550;28;20032;-75
2023/08/04 01:19:00;;;;;;;9.18;3.88;;;16.80;95.40;;;;;;5075638;28;20387;-74
2023/08/04 01:21:27;;;;;;;10.45;4.03;;;16.80;95.40;;;;;;5075481;28;20033;-74
2023/08/04 01:23:53;;;;;;;10.57;3.92;;;16.80;95.40;;;;;;5075448;28;20088;-74
2023/08/04 01:26:21;;;;;;;9.07;3.70;;;16.80;95.50;;;;;;5074226;28;20048;-74
2023/08/04 01:28:48;;;;;;;10.90;4.05;;;16.80;95.60;;;;;;5074147;28;20029;-74
2023/08/04 01:31:14;;;;;;;12.27;3.75;;;16.80;95.70;;;;;;5074289;28;20040;-74
2023/08/04 01:33:40;;;;;;;9.32;4.00;;;16.80;95.80;;;;;;5073940;28;20033;-75
2023/08/04 01:36:05;;;;;;;10.48;4.28;;;16.80;95.80;;;;;;5075058;28;20017;-75
2023/08/04 01:38:31;;;;;;;8.15;3.53;;;16.80;95.80;;;;;;5075142;28;20056;-75
2023/08/04 01:40:56;;;;;;;8.10;3.83;;;16.80;95.80;;;;;;5073800;28;20071;-74
2023/08/04 01:43:22;;;;;;;14.57;4.15;;;16.80;95.80;;;;;;5075007;28;20044;-74
2023/08/04 01:45:48;;;;;;;7.93;4.03;;;16.80;95.80;;;;;;5074942;28;20036;-74
2023/08/04 01:48:13;;;;;;;7.63;3.83;;;16.80;95.90;;;;;;5074025;28;20056;-74
2023/08/04 01:50:39;;;;;;;12.70;3.63;;;16.80;95.80;;;;;;5074844;28;20025;-74
2023/08/04 01:53:05;;;;;;;12.32;4.05;;;16.80;95.80;;;;;;5073764;28;20041;-74
2023/08/04 01:55:30;;;;;;;8.15;3.58;;;16.80;95.80;;;;;;5074737;28;20033;-74
2023/08/04 01:57:56;;;;;;;10.65;3.90;;;16.80;96.20;;;;;;5073830;28;20029;-74
2023/08/04 02:00:21;;;;;;;9.90;4.60;;;16.80;95.90;;;;;;5073660;28;20033;-74
2023/08/04 02:02:47;;;;;;;11.52;3.92;;;16.80;95.90;;;;;;5073771;28;20036;-75
2023/08/04 02:05:13;;;;;;;12.13;4.28;;;16.80;95.80;;;;;;5074538;28;20116;-74
2023/08/04 02:07:39;;;;;;;7.97;3.80;;;16.80;95.90;;;;;;5074552;28;20553;-74
2023/08/04 02:10:06;;;;;;;11.55;4.25;;;16.70;96.00;;;;;;5074482;28;20044;-75
2023/08/04 02:12:31;;;;;;;15.00;4.50;;;16.80;96.00;;;;;;5073456;28;20029;-75
2023/08/04 02:14:57;;;;;;;10.85;4.50;;;16.80;96.00;;;;;;5074347;28;20057;-74
2023/08/04 02:17:23;;;;;;;10.25;4.30;;;16.80;96.00;;;;;;5074355;28;20021;-74
2023/08/04 02:19:48;;;;;;;14.32;4.25;;;16.80;96.00;;;;;;5074279;28;20036;-74
2023/08/04 02:22:14;;;;;;;14.52;4.47;;;16.80;96.00;;;;;;5074266;28;20021;-75
2023/08/04 02:24:39;;;;;;;12.27;3.95;;;16.80;96.00;;;;;;5073269;28;20026;-74
2023/08/04 02:27:06;;;;;;;16.50;4.65;;;16.80;96.10;;;;;;5074208;28;20031;-74
2023/08/04 02:29:31;;;;;;;10.25;4.80;;;16.80;96.00;;;;;;5074099;28;20017;-74
2023/08/04 02:31:57;;;;;;;10.52;4.28;;;16.90;96.10;;;;;;5073222;28;20055;-74
2023/08/04 02:34:23;;;;;;;11.70;4.50;;;16.90;95.90;;;;;;5056210;28;20036;-74
2023/08/04 02:36:48;;;;;;;13.30;4.82;;;16.80;95.90;;;;;;5072970;28;20087;-74
2023/08/04 02:39:14;;;;;;;15.73;4.88;;;16.80;95.90;;;;;;5072980;28;20021;-74
2023/08/04 02:41:39;;;;;;;12.27;4.57;;;16.80;96.00;;;;;;5073745;28;20554;-74
2023/08/04 02:44:06;;;;;;;13.52;4.88;;;16.80;96.00;;;;;;5056170;28;20048;-74
2023/08/04 02:46:32;;;;;;;10.82;4.72;;;16.70;96.00;;;;;;5072255;28;20025;-75
2023/08/04 02:48:57;;;;;;;12.68;4.63;;;16.70;96.00;;;;;;5056376;28;20049;-74
2023/08/04 02:51:23;;;;;;;12.20;4.30;;;16.70;96.10;;;;;;5073712;28;20033;-74
2023/08/04 02:53:49;;;;;;;10.82;4.50;;;16.70;96.10;;;;;;5072670;28;20040;-74
2023/08/04 02:56:18;;;;;;;11.32;5.40;;;16.70;96.20;;;;;;5073626;28;20029;-74
2023/08/04 02:58:45;;;;;;;9.82;4.45;;;16.60;96.20;;;;;;5073586;28;20029;-75
2023/08/04 03:01:12;;;;;;;15.75;5.30;;;16.70;96.20;;;;;;5073532;28;20043;-74
2023/08/04 03:03:38;;;;;;;15.70;4.82;;;16.60;96.20;;;;;;5073569;28;20048;-74
2023/08/04 03:06:03;;;;;;;15.95;4.95;;;16.60;96.20;;;;;;5072470;28;20381;-74
2023/08/04 03:08:31;;;;;;;14.15;4.97;;;16.60;96.20;;;;;;5072578;28;20052;-74
2023/08/04 03:10:56;;;;;;;13.95;4.95;;;16.60;96.10;;;;;;5073398;28;20095;-74
2023/08/04 03:13:22;;;;;;;15.25;5.00;;;16.60;96.10;;;;;;5073311;28;20025;-75
2023/08/04 03:15:54;;;;;;;12.43;5.28;;;16.60;96.20;;;;;;5073340;28;20048;-74
2023/08/04 03:18:20;;;;;;;13.77;4.95;;;16.70;96.20;;;;;;5072382;28;20013;-74
2023/08/04 03:20:46;;;;;;;10.93;4.60;;;16.60;96.50;;;;;;5055731;28;20103;-74
2023/08/04 03:23:11;;;;;;;13.38;5.50;;;16.60;96.20;;;;;;5073368;28;20036;-74
2023/08/04 03:25:37;;;;;;;10.30;4.50;;;16.60;96.10;;;;;;5073186;28;20060;-74
2023/08/04 03:28:02;;;;;;;10.00;4.57;;;16.60;96.20;;;;;;5073203;28;20028;-74
2023/08/04 03:30:28;;;;;;;11.85;5.05;;;16.50;96.30;;;;;;5073126;28;20446;-74
2023/08/04 03:32:54;;;;;;;11.35;4.90;;;16.50;96.30;;;;;;5073091;28;20049;-74
2023/08/04 03:35:19;;;;;;;9.93;5.50;;;16.50;96.80;;;;;;5072992;28;20561;-75
2023/08/04 03:37:45;;;;;;;12.95;5.45;;;16.50;96.30;;;;;;5073126;28;20029;-74
2023/08/04 03:40:11;;;;;;;12.38;5.10;;;16.50;96.30;;;;;;5072864;28;20067;-74
2023/08/04 03:42:38;;;;;;;11.57;5.28;;;16.50;96.30;;;;;;5072215;28;20040;-74
2023/08/04 03:45:05;;;;;;;12.43;5.38;;;16.50;96.40;;;;;;5072973;28;20021;-74
2023/08/04 03:47:30;;;;;;;13.70;5.05;;;16.40;96.40;;;;;;5073023;28;20029;-74
2023/08/04 03:49:56;;;;;;;11.20;5.13;;;16.50;96.40;;;;;;5055438;28;20044;-75
2023/08/04 03:52:22;;;;;;;9.70;4.63;;;16.50;96.40;;;;;;5071924;28;20037;-74
2023/08/04 03:54:48;;;;;;;12.27;5.10;;;16.50;96.50;;;;;;5071982;28;20037;-74
2023/08/04 03:57:14;;;;;;;11.73;4.45;;;16.50;96.50;;;;;;5073705;28;20033;-74
2023/08/04 03:59:39;;;;;;;12.57;5.10;;;16.50;96.40;;;;;;5076941;28;20022;-75
2023/08/04 04:02:05;;;;;;;10.73;5.45;;;16.50;96.30;;;;;;5076941;28;20048;-74
2023/08/04 04:04:31;;;;;;;9.77;4.63;;;16.50;96.20;;;;;;5075891;28;20380;-74
2023/08/04 04:06:57;;;;;;;10.88;4.95;;;16.50;96.10;;;;;;5076837;28;20024;-74
2023/08/04 04:09:22;;;;;;;13.18;5.13;;;16.60;96.20;;;;;;5075695;28;20055;-74
2023/08/04 04:11:48;;;;;;;10.43;4.53;;;16.60;96.20;;;;;;5075814;28;20017;-74
2023/08/04 04:14:13;;;;;;;12.20;4.78;;;16.60;96.20;;;;;;5076584;28;20431;-74
2023/08/04 04:16:39;;;;;;;10.50;4.63;;;16.60;96.00;;;;;;5075646;28;20048;-74
2023/08/04 04:19:05;;;;;;;10.02;5.57;;;16.60;96.00;;;;;;5076608;28;20029;-74
2023/08/04 04:21:30;;;;;;;12.43;4.80;;;16.70;96.10;;;;;;5076571;28;20036;-74
2023/08/04 04:23:56;;;;;;;12.82;5.03;;;16.70;96.10;;;;;;5076563;28;20029;-74
2023/08/04 04:26:22;;;;;;;9.13;4.35;;;16.70;96.10;;;;;;5076428;28;20036;-74
2023/08/04 04:28:47;;;;;;;10.88;4.32;;;16.70;96.10;;;;;;5075377;28;20032;-74
2023/08/04 04:31:13;;;;;;;11.75;4.53;;;16.70;96.00;;;;;;5076324;28;20059;-74
2023/08/04 04:33:38;;;;;;;9.20;4.15;;;16.70;96.00;;;;;;5058549;28;20025;-74
2023/08/04 04:36:04;;;;;;;9.80;4.75;;;16.70;96.10;;;;;;5075360;28;20025;-74
2023/08/04 04:38:30;;;;;;;12.75;4.95;;;16.80;96.00;;;;;;5075423;28;20045;-75
2023/08/04 04:40:56;;;;;;;13.27;4.85;;;16.70;96.00;;;;;;5076006;28;20048;-74
2023/08/04 04:43:22;;;;;;;11.80;4.85;;;16.70;96.00;;;;;;5075238;28;20056;-75
2023/08/04 04:45:49;;;;;;;9.07;4.47;;;16.60;96.10;;;;;;5076066;28;20029;-74
2023/08/04 04:48:15;;;;;;;11.18;5.22;;;16.60;96.10;;;;;;5076086;28;20025;-75
2023/08/04 04:50:40;;;;;;;12.05;5.18;;;16.60;96.20;;;;;;5075970;28;20044;-73
2023/08/04 04:53:06;;;;;;;11.13;5.30;;;16.60;96.30;;;;;;5075922;28;20029;-74
2023/08/04 04:55:32;;;;;;;8.27;4.75;;;16.60;96.30;;;;;;5074971;28;20388;-74
2023/08/04 04:57:57;;;;;;;14.75;5.80;;;16.60;96.30;;;;;;5075929;28;20024;-75
2023/08/04 05:00:23;;;;;;;11.20;4.40;;;16.60;96.40;;;;;;5075812;28;20040;-75
2023/08/04 05:02:49;;;;;;;12.57;5.50;;;16.60;96.50;;;;;;5041674;28;20538;-74
2023/08/04 05:05:15;;;;;;;12.73;5.00;;;16.60;96.60;;;;;;5074772;28;20029;-74
2023/08/04 05:07:40;;;;;;;10.77;5.30;;;16.60;96.70;;;;;;5074719;28;20068;-75
2023/08/04 05:10:08;;;;;;;11.60;5.25;;;16.60;96.80;;;;;;5074928;28;20029;-75
2023/08/04 05:12:33;;;;;;;14.73;5.78;;;16.60;96.80;;;;;;5075572;28;20037;-75
2023/08/04 05:14:59;;;;;;;15.20;5.50;;;16.50;96.70;;;;;;5075501;28;20021;-75
2023/08/04 05:17:25;;;;;;;10.93;5.03;;;16.50;96.80;;;;;;5075546;28;20025;-75
2023/08/04 05:19:50;;;;;;;15.77;5.65;;;16.50;96.90;;;;;;5075458;28;20047;-74
2023/08/04 05:22:16;;;;;;;12.57;5.47;;;16.60;96.90;;;;;;5075476;28;20036;-74
2023/08/04 05:24:41;;;;;;;14.18;6.05;;;16.60;97.00;;;;;;5075310;28;20036;-74
2023/08/04 05:27:08;;;;;;;13.88;5.72;;;16.70;97.00;;;;;;5075392;28;20051;-75
2023/08/04 05:29:34;;;;;;;11.43;5.55;;;16.70;97.10;;;;;;5075234;28;20029;-74
2023/08/04 05:31:59;;;;;;;13.82;5.50;;;16.70;97.10;;;;;;5075253;28;20025;-74
2023/08/04 05:34:25;;;;;;;11.00;5.57;;;16.70;97.00;;;;;;5075061;28;20052;-74
2023/08/04 05:36:51;;;;;;;14.15;5.97;;;16.80;97.10;;;;;;5074199;28;20021;-74
2023/08/04 05:39:17;;;;;;;9.88;5.60;;;16.80;97.00;;;;;;5074185;28;20021;-74
2023/08/04 05:41:45;;;;;;;13.05;5.00;;;16.80;97.00;;;;;;5074941;28;20054;-74
2023/08/04 05:44:11;;;;;;;15.85;5.82;;;16.90;97.00;;;;;;5075038;28;20029;-74
2023/08/04 05:46:37;;;;;;;11.25;4.97;;;16.90;97.00;;;;;;5074967;28;20030;-74
2023/08/04 05:49:03;;;;;;;21.73;5.22;;;17.00;97.00;;;;;;5073807;28;20036;-74
2023/08/04 05:51:29;;;;;;;12.77;5.47;;;17.00;97.10;;;;;;5074057;28;20033;-74
2023/08/04 05:53:54;;;;;;;11.40;4.90;;;17.00;97.10;;;;;;5074775;28;20044;-74
2023/08/04 05:56:20;;;;;;;12.65;5.07;;;17.10;97.10;;;;;;5074768;28;20021;-74
2023/08/04 05:58:45;;;;;;;13.32;5.28;;;17.10;97.10;;;;;;5073760;28;20056;-73
2023/08/04 06:01:11;;;;;;;11.60;4.97;;;17.20;97.00;;;;;;5074668;28;20024;-75
2023/08/04 06:03:37;;;;;;;19.10;5.43;;;17.20;96.90;;;;;;5073641;28;20503;-74
2023/08/04 06:06:03;;;;;;;9.48;4.25;;;17.20;96.90;;;;;;5074573;28;20044;-74
2023/08/04 06:08:29;;;;;;;13.00;5.22;;;17.20;96.80;;;;;;5074606;28;20028;-75
2023/08/04 06:10:54;;;;;;;9.48;4.65;;;17.20;96.80;;;;;;5073480;28;20040;-76
2023/08/04 06:13:20;;;;;;;12.95;5.28;;;17.30;96.80;;;;;;5074414;28;20064;-74
2023/08/04 06:15:47;;;;;;;11.15;4.72;;;17.30;96.70;;;;;;5074452;28;20029;-75
2023/08/04 06:18:13;;;;;;;10.30;4.93;;;17.30;96.80;;;;;;5074478;28;20032;-74
2023/08/04 06:20:39;;;;;;;13.25;4.82;;;17.30;96.80;;;;;;5073379;28;20016;-74
2023/08/04 06:23:05;;;;;;;11.82;4.85;;;17.40;96.90;;;;;;5074290;28;20032;-74
2023/08/04 06:25:30;;;;;;;10.32;4.97;;;17.40;96.90;;;;;;5074282;28;20021;-75
2023/08/04 06:27:56;;;;;;;10.55;4.78;;;17.40;96.90;;;;;;5073233;28;20033;-75
2023/08/04 06:30:22;;;;;;;13.02;5.18;;;17.50;96.80;;;;;;5074143;28;20029;-75
2023/08/04 06:32:49;;;;;;;11.55;5.15;;;17.50;96.80;;;;;;5074040;28;20044;-74
2023/08/04 06:35:15;;;;;;;12.70;4.97;;;17.50;96.70;;;;;;5073990;28;20013;-75
2023/08/04 06:37:40;;;;;;;12.23;4.97;;;17.50;96.70;;;;;;5072986;28;20086;-74
2023/08/04 06:40:07;;;;;;;16.08;4.65;;;17.50;96.60;;;;;;5056188;28;20059;-74
2023/08/04 06:42:32;;;;;;;10.70;4.65;;;17.50;96.60;;;;;;5073938;28;20029;-75
2023/08/04 06:44:58;;;;;;;10.82;5.00;;;17.60;96.60;;;;;;5072887;28;20088;-74
2023/08/04 06:47:23;;;;;;;10.00;5.03;;;17.60;96.60;;;;;;5073807;28;20061;-75
2023/08/04 06:49:49;;;;;;;8.88;4.60;;;17.60;96.60;;;;;;5073924;28;20036;-75
2023/08/04 06:52:15;;;;;;;9.52;4.45;;;17.70;96.70;;;;;;5073690;28;20033;-75
2023/08/04 06:54:40;;;;;;;14.00;4.40;;;17.70;96.70;;;;;;5072709;28;20025;-75
2023/08/04 06:57:06;;;;;;;12.80;4.47;;;17.80;96.60;;;;;;5056030;28;20092;-75
2023/08/04 06:59:33;;;;;;;14.05;5.28;;;17.80;96.60;;;;;;5072613;28;20097;-75
2023/08/04 07:01:59;;;;;;;9.18;3.80;;;17.90;96.60;;;;;;5073754;28;20056;-75
2023/08/04 07:04:24;;;;;;;11.93;5.13;;;17.90;96.50;;;;;;5072530;28;20025;-75
2023/08/04 07:06:50;;;;;;;8.23;4.60;;;18.00;96.50;;;;;;5073669;28;20059;-75
2023/08/04 07:09:16;;;;;;;9.00;4.10;;;18.00;96.50;;;;;;5072547;28;20036;-75
2023/08/04 07:11:41;;;;;;;9.95;3.83;;;18.10;96.40;;;;;;5073549;28;20059;-75
2023/08/04 07:14:07;;;;;;;10.02;3.13;;;18.10;96.30;;;;;;5073340;28;20037;-75
2023/08/04 07:16:33;;;;;;;6.25;3.38;;;18.10;96.20;;;;;;5073576;28;20043;-75
2023/08/04 07:18:59;;;;;;;9.27;3.72;;;18.10;96.20;;;;;;5073235;28;20084;-75
2023/08/04 07:21:24;;;;;;;7.63;3.50;;;18.10;96.00;;;;;;5073300;28;20025;-75
2023/08/04 07:23:50;;;;;;;9.68;3.30;;;18.20;96.10;;;;;;5072418;28;20089;-75
2023/08/04 07:26:15;;;;;;;6.68;3.15;;;18.20;96.10;;;;;;5073239;28;20086;-75
2023/08/04 07:28:41;;;;;;;8.77;3.50;;;18.30;96.00;;;;;;5073206;28;20025;-75
2023/08/04 07:31:09;;;;;;;8.23;3.72;;;18.30;96.00;;;;;;5055345;28;20029;-75
2023/08/04 07:33:36;;;;;;;7.68;3.30;;;18.40;96.00;;;;;;5072970;28;20033;-74
2023/08/04 07:36:03;;;;;;;7.10;2.95;;;18.40;95.90;;;;;;5073097;28;20092;-75
2023/08/04 07:38:29;;;;;;;7.30;2.75;;;18.40;95.80;;;;;;5055442;28;20052;-75
2023/08/04 07:40:56;;;;;;;6.97;3.42;;;18.50;95.80;;;;;;5072943;28;20033;-75
2023/08/04 07:43:21;;;;;;;7.97;3.22;;;18.50;95.70;;;;;;5073117;28;20025;-76
2023/08/04 07:45:47;;;;;;;8.95;3.10;;;18.50;95.60;;;;;;5073080;28;20033;-76
2023/08/04 07:48:13;;;;;;;7.78;3.03;;;18.60;95.60;;;;;;5072128;28;20044;-76
2023/08/04 07:50:40;;;;;;;7.05;2.97;;;18.60;95.50;;;;;;5055453;28;20025;-76
2023/08/04 07:53:05;;;;;;;7.60;3.40;;;18.60;95.40;;;;;;5072879;28;20037;-75
2023/08/04 07:55:34;;;;;;;7.50;3.42;;;18.60;95.30;;;;;;5072093;28;20472;-75
2023/08/04 07:58:00;;;;;;;7.07;3.28;;;18.60;95.20;;;;;;5072022;28;20054;-76
2023/08/04 08:00:26;;;;;;;7.70;3.28;;;18.60;95.20;;;;;;5071958;28;20025;-75
2023/08/04 08:02:51;;;;;;;6.03;3.00;;;18.70;95.30;;;;;;5072906;28;20028;-76
2023/08/04 08:05:17;;;;;;;10.20;3.22;;;18.70;95.30;;;;;;5071981;28;20503;-75
2023/08/04 08:07:43;;;;;;;7.38;3.47;;;18.70;95.20;;;;;;5071945;28;20041;-75
2023/08/04 08:10:08;;;;;;;10.02;4.22;;;18.80;95.20;;;;;;5072871;28;20097;-75
2023/08/04 08:12:34;;;;;;;7.80;4.40;;;18.80;95.10;;;;;;5071785;28;20036;-75
2023/08/04 08:15:00;;;;;;;8.18;4.50;;;18.90;95.00;;;;;;5072794;28;20029;-75
2023/08/04 08:17:25;;;;;;;10.77;3.85;;;18.90;95.00;;;;;;5072901;28;20036;-75
2023/08/04 08:19:51;;;;;;;10.48;4.20;;;18.80;94.90;;;;;;5072721;28;20043;-75
2023/08/04 08:22:17;;;;;;;10.43;3.95;;;18.80;94.90;;;;;;5071695;28;20029;-75
2023/08/04 08:24:43;;;;;;;10.07;3.50;;;18.90;95.00;;;;;;5072677;28;20037;-75
2023/08/04 08:27:08;;;;;;;7.90;3.53;;;18.90;95.00;;;;;;5072679;28;20025;-75
2023/08/04 08:29:35;;;;;;;11.13;4.13;;;19.00;95.00;;;;;;5071774;28;20041;-75
2023/08/04 08:32:01;;;;;;;10.05;4.00;;;19.00;94.90;;;;;;5072662;28;20020;-76
2023/08/04 08:34:27;;;;;;;7.93;3.67;;;19.10;94.80;;;;;;5072534;28;20033;-76
2023/08/04 08:36:52;;;;;;;5.97;4.07;;;19.10;94.70;;;;;;5055061;28;20037;-76
2023/08/04 08:39:18;;;;;;;10.30;4.18;;;19.10;94.50;;;;;;5072564;28;20029;-75
2023/08/04 08:41:43;;;;;;;7.82;4.57;;;19.20;94.50;;;;;;5072378;28;20067;-75
2023/08/04 08:44:09;;;;;;;9.10;4.40;;;19.30;94.40;;;;;;5073905;28;20037;-76
2023/08/04 08:46:35;;;;;;;7.82;4.18;;;19.30;94.20;;;;;;5076141;28;20392;-75
2023/08/04 08:49:03;;;;;;;9.25;4.10;;;19.40;94.00;;;;;;5076140;28;20028;-76
2023/08/04 08:51:29;;;;;;;6.07;3.42;;;19.40;93.30;;;;;;5076070;28;20029;-76
2023/08/04 08:53:57;;;;;;;6.80;3.47;;;19.40;93.60;;;;;;5075029;28;20033;-76
2023/08/04 08:56:25;;;;;;;6.38;3.20;;;19.40;93.50;;;;;;5075989;28;20021;-76
2023/08/04 08:58:51;;;;;;;6.80;2.90;;;19.50;93.60;;;;;;5058262;28;20025;-76
2023/08/04 09:01:17;;;;;;;5.18;2.17;;;19.50;93.40;;;;;;5075894;28;20041;-76
2023/08/04 09:03:44;;;;;;;4.95;2.50;;;19.50;92.90;;;;;;5075808;28;20033;-76
2023/08/04 09:06:09;;;;;;;6.20;2.47;;;19.50;92.60;;;;;;5074860;28;20032;-75
2023/08/04 09:08:35;;;;;;;4.60;2.58;;;19.50;92.60;;;;;;5075755;28;20029;-76
2023/08/04 09:11:02;;;;;;;5.32;2.00;;;19.50;92.60;;;;;;5075740;28;20029;-76
2023/08/04 09:13:27;;;;;;;3.30;2.30;;;19.60;92.50;;;;;;5074669;28;20034;-76
2023/08/04 09:16:02;;;;;;;5.57;2.38;;;19.60;92.50;;;;;;5074742;28;20037;-76
2023/08/04 09:18:33;;;;;;;8.23;2.42;;;19.60;92.50;;;;;;5075766;28;20077;-76
2023/08/04 09:21:21;;;;;;;4.75;2.40;;;19.70;92.50;;;;;;5074534;28;20025;-76
2023/08/04 09:23:49;;;;;;;4.80;2.50;;;19.70;92.50;;;;;;5075507;28;20032;-76
2023/08/04 09:26:15;;;;;;;5.22;2.00;;;19.80;92.50;;;;;;5075443;28;20047;-76
2023/08/04 09:28:41;;;;;;;2.38;1.80;;;19.80;92.40;;;;;;5074347;28;20052;-76
2023/08/04 09:31:08;;;;;;;3.05;1.75;;;19.80;92.10;;;;;;5074322;28;20021;-75
2023/08/04 09:33:41;;;;;;;7.13;2.28;;;19.80;91.80;;;;;;5075003;28;20036;-76
2023/08/04 09:36:11;;;;;;;4.78;1.83;;;19.80;91.80;;;;;;5075331;28;20044;-76
2023/08/04 09:38:38;;;;;;;6.32;2.13;;;19.80;91.80;;;;;;5075202;28;20021;-75
2023/08/04 09:41:09;;;;;;;4.75;2.10;;;19.80;91.90;;;;;;5075004;28;20045;-76
2023/08/04 09:43:42;;;;;;;5.45;2.40;;;19.80;91.90;;;;;;5075094;28;20035;-76
2023/08/04 09:46:07;;;;;;;;;;;19.70;92.10;;;;;;5074631;28;20036;-76
2023/08/04 09:48:33;;;;;;;4.15;2.10;;;19.70;92.50;;;;;;5074061;28;19913;-76
2023/08/04 09:51:11;;;;;;;4.25;2.30;;;19.60;92.40;;;;;;5057315;28;20021;-76
2023/08/04 09:53:44;;;;;;;5.13;2.05;;;19.70;93.00;;;;;;5074836;28;20052;-76
2023/08/04 09:56:16;;;;;;;5.45;2.65;;;19.80;92.70;;;;;;5073774;28;20021;-76
2023/08/04 09:58:43;;;;;;;2.60;1.83;;;19.90;92.70;;;;;;5074906;28;20017;-76
2023/08/04 10:01:08;;;;;;;4.10;1.80;;;20.00;92.00;;;;;;5074794;28;20051;-76
2023/08/04 10:03:36;;;;;;;6.28;1.80;;;20.10;91.80;;;;;;5074711;28;20491;-76
2023/08/04 10:06:05;;;;;;;3.08;1.80;;;20.20;90.40;;;;;;5074667;28;20028;-75
2023/08/04 10:08:33;;;;;;;4.97;1.85;;;20.20;90.90;;;;;;5074623;28;20029;-76
2023/08/04 10:10:59;;;;;;;4.90;2.10;;;20.30;91.30;;;;;;5073684;28;20029;-76
2023/08/04 10:13:32;;;;;;;2.65;1.50;;;20.20;91.50;;;;;;5074468;28;20021;-76
2023/08/04 10:16:01;;;;;;;2.13;1.25;;;20.20;90.60;;;;;;5074487;28;20024;-77
2023/08/04 10:18:55;;;;;;;1.77;1.10;;;20.20;90.50;;;;;;5074436;28;20017;-76
2023/08/04 10:21:37;;;;;;;2.00;1.10;;;20.10;89.50;;;;;;5074417;28;20017;-76
2023/08/04 10:24:03;;;;;;;2.42;0.98;;;20.00;90.00;;;;;;5074391;28;20033;-76
2023/08/04 10:26:47;;;;;;;1.00;0.90;;;19.90;90.40;;;;;;5073264;28;20085;-76
2023/08/04 10:29:13;;;;;;;0.93;0.82;;;19.90;90.40;;;;;;5073267;28;20029;-76
2023/08/04 10:31:52;;;;;;;2.10;1.13;;;20.00;90.80;;;;;;5056566;28;20052;-76
2023/08/04 10:34:31;;;;;;;2.95;1.27;;;20.20;90.30;;;;;;5074314;28;20057;-75
2023/08/04 10:37:05;;;;;;;2.95;1.50;;;20.20;90.60;;;;;;5073015;28;20168;-75
2023/08/04 10:39:48;;;;;;;3.67;1.40;;;20.40;90.80;;;;;;5073036;28;20085;-77
2023/08/04 10:42:26;;;;;;;4.55;1.88;;;20.60;90.60;;;;;;5074163;28;20033;-76
2023/08/04 10:45:06;;;;;;;1.85;1.08;;;20.70;90.50;;;;;;5073969;28;20021;-76
2023/08/04 10:47:39;;;;;;;2.45;1.30;;;20.70;88.50;;;;;;5073987;28;20051;-76
2023/08/04 10:50:05;;;;;;;2.38;1.48;;;20.70;87.20;;;;;;5072955;28;20021;-76
2023/08/04 10:52:32;;;;;;;1.70;1.27;;;20.80;88.90;;;;;;5073714;28;20048;-76
2023/08/04 10:54:58;;;;;;;5.88;1.35;;;20.90;88.50;;;;;;5073729;28;20108;-76
2023/08/04 10:57:28;;;;;;;4.43;1.63;;;21.00;88.40;;;;;;5072770;28;20028;-76
2023/08/04 10:59:55;;;;;;;3.70;1.80;;;21.20;88.90;;;;;;5073664;28;20055;-76
2023/08/04 11:02:22;;;;;;;4.05;1.40;;;21.30;89.60;;;;;;5072676;28;20020;-77
2023/08/04 11:04:48;;;;;;;3.47;1.50;;;21.30;88.00;;;;;;5056180;28;20021;-76
2023/08/04 11:07:15;;;;;;;3.00;1.50;;;21.30;88.00;;;;;;5072181;28;20029;-76
2023/08/04 11:09:42;;;;;;;3.55;1.70;;;21.40;87.80;;;;;;5072531;28;20115;-76
2023/08/04 11:12:09;;;;;;;2.50;1.23;;;21.40;87.90;;;;;;5072588;28;20025;-76
2023/08/04 11:14:35;;;;;;;3.45;1.60;;;21.50;88.20;;;;;;5073376;28;20033;-76
2023/08/04 11:17:11;;;;;;;4.05;1.52;;;21.50;87.60;;;;;;5073408;28;20040;-76
2023/08/04 11:19:37;;;;;;;4.15;2.20;;;21.50;87.30;;;;;;5072343;28;20021;-76
2023/08/04 11:22:13;;;;;;;2.50;1.70;;;21.50;86.70;;;;;;5073382;28;20093;-76
2023/08/04 11:24:39;;;;;;;2.03;1.33;;;21.50;86.70;;;;;;5072337;28;20020;-76
2023/08/04 11:27:05;;;;;;;2.53;1.30;;;21.60;87.00;;;;;;5055845;28;20025;-76
2023/08/04 11:29:31;;;;;;;2.45;1.50;;;21.60;86.40;;;;;;5073218;28;20051;-76
2023/08/04 11:31:57;;;;;;;2.63;1.20;;;21.50;86.30;;;;;;5072301;28;20096;-76
2023/08/04 11:34:22;;;;;;;1.90;1.13;;;21.60;86.50;;;;;;5073207;28;20041;-76
2023/08/04 11:36:49;;;;;;;1.83;1.33;;;21.60;86.30;;;;;;5072185;28;20025;-75
2023/08/04 11:39:15;;;;;;;2.38;1.70;;;21.50;86.40;;;;;;5073122;28;20018;-76
2023/08/04 11:41:43;;;;;;;3.72;1.88;;;21.60;86.30;;;;;;5071988;28;20071;-76
2023/08/04 11:44:09;;;;;;;2.83;1.83;;;21.50;85.20;;;;;;5073136;28;20048;-76
2023/08/04 11:46:35;;;;;;;3.70;2.03;;;21.60;84.90;;;;;;5072191;28;20052;-75
2023/08/04 11:49:07;;;;;;;2.60;1.70;;;21.60;83.50;;;;;;5073183;28;20052;-76
2023/08/04 11:51:33;;;;;;;3.35;1.70;;;21.60;83.00;;;;;;5055580;28;20083;-76
2023/08/04 11:53:59;;;;;;;3.38;1.50;;;21.60;83.70;;;;;;5071999;28;20029;-76
2023/08/04 11:56:35;;;;;;;4.38;1.50;;;21.60;83.80;;;;;;5072991;28;20029;-75
2023/08/04 11:59:11;;;;;;;1.95;1.00;;;21.70;82.80;;;;;;5056898;28;20093;-75
2023/08/04 12:01:37;;;;;;;3.25;1.20;;;21.70;82.20;;;;;;5071939;28;20039;-76
2023/08/04 12:04:22;;;;;;;5.00;1.60;;;21.80;81.40;;;;;;5072990;28;20060;-75
2023/08/04 12:06:57;;;;;;;31.08;3.10;;;21.90;81.70;;;;;;5072991;28;20025;-76
2023/08/04 12:09:23;;;;;;;5.70;1.20;;;21.90;80.60;;;;;;5072008;28;20025;-76
2023/08/04 12:11:49;;;;;;;1.48;1.10;;;22.00;81.40;;;;;;5055200;28;20495;-76
2023/08/04 12:14:16;;;;;;;2.92;1.40;;;22.10;81.20;;;;;;5071740;28;20109;-75
2023/08/04 12:17:02;;;;;;;1.80;1.23;;;22.00;80.30;;;;;;5072814;28;20017;-76
2023/08/04 12:19:29;;;;;;;2.75;1.20;;;21.80;79.70;;;;;;5073745;28;20069;-76
2023/08/04 12:21:59;;;;;;;2.47;1.30;;;21.70;81.40;;;;;;5075710;28;20013;-75
2023/08/04 12:24:26;;;;;;;1.55;1.02;;;21.70;82.20;;;;;;5076644;28;20013;-75
2023/08/04 12:26:53;;;;;;;3.55;0.98;;;21.60;82.40;;;;;;5075674;28;20089;-76
2023/08/04 12:29:19;;;;;;;6.57;1.55;;;21.50;83.00;;;;;;5075569;28;20056;-75
2023/08/04 12:31:44;;;;;;;1.55;1.10;;;21.50;83.90;;;;;;5076435;28;20476;-75
2023/08/04 12:34:10;;;;;;;2.25;1.20;;;21.40;84.50;;;;;;5075321;28;20033;-76
2023/08/04 12:36:39;;;;;;;3.47;1.27;;;21.30;84.30;;;;;;5076380;28;20025;-76
2023/08/04 12:39:08;;;;;;;3.45;1.20;;;21.40;84.60;;;;;;5076318;28;20025;-76
2023/08/04 12:41:34;;;;;;;2.80;1.30;;;21.60;84.90;;;;;;5075126;28;20121;-75